createdAt,value
2022-07-31T00:00:07.247Z,16.25
2022-07-31T00:00:17.773Z,16.27
2022-07-31T00:00:28.294Z,16.25
2022-07-31T00:00:38.858Z,16.25
2022-07-31T00:00:49.363Z,16.28
2022-07-31T00:00:59.853Z,16.27
2022-07-31T00:01:10.386Z,16.27
2022-07-31T00:01:20.902Z,16.30
2022-07-31T00:01:31.409Z,16.28
2022-07-31T00:01:41.935Z,16.28
2022-07-31T00:01:52.444Z,16.28
2022-07-31T00:02:02.964Z,16.30
2022-07-31T00:02:13.486Z,16.31
2022-07-31T00:02:24.006Z,16.31
2022-07-31T00:02:34.528Z,16.30
2022-07-31T00:02:45.049Z,16.30
2022-07-31T00:02:55.596Z,16.31
2022-07-31T00:03:06.219Z,16.31
2022-07-31T00:03:16.655Z,16.31
2022-07-31T00:03:27.187Z,16.31
2022-07-31T00:03:37.751Z,16.33
2022-07-31T00:03:48.244Z,16.31
2022-07-31T00:03:58.772Z,16.31
2022-07-31T00:04:09.206Z,16.30
2022-07-31T00:04:19.730Z,16.28
2022-07-31T00:04:30.249Z,16.31
2022-07-31T00:04:40.776Z,16.31
2022-07-31T00:04:51.289Z,16.31
2022-07-31T00:05:01.821Z,16.30
2022-07-31T00:05:12.328Z,16.30
2022-07-31T00:05:22.867Z,16.30
2022-07-31T00:05:33.376Z,16.31
2022-07-31T00:05:44.899Z,16.30
2022-07-31T00:05:54.415Z,16.31
2022-07-31T00:06:04.991Z,16.30
2022-07-31T00:06:15.455Z,16.28
2022-07-31T00:06:25.977Z,16.30
2022-07-31T00:06:36.501Z,16.31
2022-07-31T00:06:47.020Z,16.30
2022-07-31T00:06:57.542Z,16.30
2022-07-31T00:07:08.063Z,16.31
2022-07-31T00:07:18.578Z,16.31
2022-07-31T00:07:29.101Z,16.30
2022-07-31T00:07:39.614Z,16.33
2022-07-31T00:07:50.137Z,16.31
2022-07-31T00:08:00.662Z,16.31
2022-07-31T00:08:11.182Z,16.31
2022-07-31T00:08:21.694Z,16.33
2022-07-31T00:08:32.219Z,16.33
2022-07-31T00:08:42.738Z,16.34
2022-07-31T00:08:53.255Z,16.31
2022-07-31T00:09:03.775Z,16.33
2022-07-31T00:09:45.346Z,16.33
2022-07-31T00:09:48.844Z,16.34
2022-07-31T00:09:53.212Z,16.34
2022-07-31T00:09:53.713Z,16.34
2022-07-31T00:09:57.387Z,16.34
2022-07-31T00:10:06.905Z,16.34
2022-07-31T00:10:17.423Z,16.34
2022-07-31T00:10:28.015Z,16.35
2022-07-31T00:10:38.460Z,16.35
2022-07-31T00:10:48.971Z,16.35
2022-07-31T00:10:59.496Z,16.38
2022-07-31T00:11:10.042Z,16.35
2022-07-31T00:11:20.539Z,16.35
2022-07-31T00:11:31.054Z,16.35
2022-07-31T00:11:41.576Z,16.38
2022-07-31T00:11:52.102Z,16.38
2022-07-31T00:12:02.641Z,16.35
2022-07-31T00:12:13.145Z,16.38
2022-07-31T00:12:23.658Z,16.38
2022-07-31T00:12:34.183Z,16.38
2022-07-31T00:12:44.706Z,16.38
2022-07-31T00:12:55.228Z,16.39
2022-07-31T00:13:05.741Z,16.35
2022-07-31T00:13:16.264Z,16.38
2022-07-31T00:13:57.821Z,16.38
2022-07-31T00:13:57.888Z,16.38
2022-07-31T00:13:58.194Z,16.34
2022-07-31T00:13:59.335Z,16.35
2022-07-31T00:14:08.857Z,16.38
2022-07-31T00:14:19.388Z,16.35
2022-07-31T00:14:29.895Z,16.35
2022-07-31T00:14:40.423Z,16.35
2022-07-31T00:14:50.935Z,16.39
2022-07-31T00:15:01.500Z,16.38
2022-07-31T00:15:11.978Z,16.38
2022-07-31T00:15:22.497Z,16.35
2022-07-31T00:15:33.013Z,16.38
2022-07-31T00:15:43.539Z,16.35
2022-07-31T00:15:54.066Z,16.38
2022-07-31T00:16:04.582Z,16.38
2022-07-31T00:16:15.107Z,16.38
2022-07-31T00:16:25.625Z,16.35
2022-07-31T00:16:36.139Z,16.38
2022-07-31T00:16:46.670Z,16.35
2022-07-31T00:16:57.180Z,16.35
2022-07-31T00:17:07.711Z,16.35
2022-07-31T00:17:18.229Z,16.38
2022-07-31T00:17:28.788Z,16.35
2022-07-31T00:17:39.279Z,16.39
2022-07-31T00:17:49.798Z,16.39
2022-07-31T00:18:00.315Z,16.39
2022-07-31T00:18:10.839Z,16.41
2022-07-31T00:18:21.352Z,16.38
2022-07-31T00:18:31.902Z,16.39
2022-07-31T00:18:42.418Z,16.39
2022-07-31T00:18:52.925Z,16.39
2022-07-31T00:19:03.435Z,16.39
2022-07-31T00:19:13.957Z,16.41
2022-07-31T00:19:24.477Z,16.39
2022-07-31T00:19:34.998Z,16.41
2022-07-31T00:19:45.522Z,16.41
2022-07-31T00:19:56.058Z,16.42
2022-07-31T00:20:06.559Z,16.41
2022-07-31T00:20:17.091Z,16.41
2022-07-31T00:20:27.608Z,16.42
2022-07-31T00:20:38.129Z,16.42
2022-07-31T00:20:48.644Z,16.42
2022-07-31T00:20:59.166Z,16.42
2022-07-31T00:21:09.685Z,16.43
2022-07-31T00:21:20.211Z,16.42
2022-07-31T00:21:30.729Z,16.41
2022-07-31T00:21:41.248Z,16.41
2022-07-31T00:21:51.772Z,16.42
2022-07-31T00:22:02.299Z,16.43
2022-07-31T00:22:12.813Z,16.43
2022-07-31T00:22:23.334Z,16.42
2022-07-31T00:22:33.856Z,16.42
2022-07-31T00:22:44.413Z,16.43
2022-07-31T00:22:54.892Z,16.43
2022-07-31T00:23:05.418Z,16.45
2022-07-31T00:23:19.073Z,16.45
2022-07-31T00:23:26.461Z,16.42
2022-07-31T00:23:36.972Z,16.42
2022-07-31T00:23:47.508Z,16.43
2022-07-31T00:23:58.009Z,16.43
2022-07-31T00:24:08.533Z,16.45
2022-07-31T00:24:19.052Z,16.43
2022-07-31T00:24:30.213Z,16.42
2022-07-31T00:24:40.091Z,16.43
2022-07-31T00:24:50.617Z,16.42
2022-07-31T00:25:01.128Z,16.43
2022-07-31T00:25:11.652Z,16.45
2022-07-31T00:25:22.172Z,16.45
2022-07-31T00:25:32.692Z,16.45
2022-07-31T00:25:43.209Z,16.43
2022-07-31T00:25:53.735Z,16.45
2022-07-31T00:26:04.251Z,16.43
2022-07-31T00:26:14.769Z,16.43
2022-07-31T00:26:25.288Z,16.45
2022-07-31T00:26:35.811Z,16.43
2022-07-31T00:26:46.334Z,16.43
2022-07-31T00:26:57.874Z,16.42
2022-07-31T00:27:07.398Z,16.42
2022-07-31T00:27:17.923Z,16.43
2022-07-31T00:27:28.416Z,16.42
2022-07-31T00:27:38.954Z,16.43
2022-07-31T00:27:49.464Z,16.42
2022-07-31T00:27:59.986Z,16.42
2022-07-31T00:28:10.501Z,16.43
2022-07-31T00:28:21.034Z,16.43
2022-07-31T00:28:31.547Z,16.42
2022-07-31T00:28:42.070Z,16.45
2022-07-31T00:28:52.587Z,16.45
2022-07-31T00:29:03.113Z,16.43
2022-07-31T00:29:16.149Z,16.43
2022-07-31T00:29:24.147Z,16.42
2022-07-31T00:29:34.673Z,16.41
2022-07-31T00:29:45.187Z,16.41
2022-07-31T00:29:55.708Z,16.39
2022-07-31T00:30:06.231Z,16.42
2022-07-31T00:30:16.748Z,16.41
2022-07-31T00:30:27.267Z,16.39
2022-07-31T00:30:37.798Z,16.41
2022-07-31T00:30:48.312Z,16.39
2022-07-31T00:30:58.827Z,16.38
2022-07-31T00:31:09.349Z,16.35
2022-07-31T00:31:19.865Z,16.38
2022-07-31T00:31:30.401Z,16.35
2022-07-31T00:31:40.909Z,16.35
2022-07-31T00:31:51.435Z,16.38
2022-07-31T00:32:01.951Z,16.35
2022-07-31T00:32:12.496Z,16.34
2022-07-31T00:32:22.988Z,16.35
2022-07-31T00:32:33.514Z,16.35
2022-07-31T00:32:44.032Z,16.35
2022-07-31T00:32:54.554Z,16.35
2022-07-31T00:33:05.075Z,16.38
2022-07-31T00:33:15.594Z,16.35
2022-07-31T00:33:26.118Z,16.38
2022-07-31T00:33:36.634Z,16.39
2022-07-31T00:33:47.156Z,16.39
2022-07-31T00:33:57.682Z,16.39
2022-07-31T00:34:08.200Z,16.41
2022-07-31T00:34:18.724Z,16.39
2022-07-31T00:34:29.238Z,16.41
2022-07-31T00:34:39.768Z,16.39
2022-07-31T00:34:50.297Z,16.41
2022-07-31T00:35:00.806Z,16.39
2022-07-31T00:35:12.436Z,16.39
2022-07-31T00:35:21.852Z,16.38
2022-07-31T00:35:32.371Z,16.38
2022-07-31T00:35:42.891Z,16.35
2022-07-31T00:35:53.406Z,16.34
2022-07-31T00:36:03.932Z,16.33
2022-07-31T00:36:14.447Z,16.34
2022-07-31T00:36:30.141Z,16.33
2022-07-31T00:36:36.492Z,16.33
2022-07-31T00:36:46.015Z,16.31
2022-07-31T00:36:56.538Z,16.31
2022-07-31T00:37:07.452Z,16.30
2022-07-31T00:37:17.568Z,16.30
2022-07-31T00:37:28.099Z,16.31
2022-07-31T00:37:38.615Z,16.33
2022-07-31T00:37:49.436Z,16.33
2022-07-31T00:38:25.753Z,16.33
2022-07-31T00:38:27.479Z,16.30
2022-07-31T00:38:28.837Z,16.28
2022-07-31T00:38:32.222Z,16.31
2022-07-31T00:38:41.744Z,16.30
2022-07-31T00:38:52.268Z,16.27
2022-07-31T00:39:02.780Z,16.27
2022-07-31T00:39:13.304Z,16.28
2022-07-31T00:39:23.833Z,16.28
2022-07-31T00:39:34.345Z,16.28
2022-07-31T00:39:44.868Z,16.27
2022-07-31T00:39:55.391Z,16.28
2022-07-31T00:40:05.921Z,16.27
2022-07-31T00:40:16.423Z,16.28
2022-07-31T00:40:26.944Z,16.25
2022-07-31T00:40:37.466Z,16.27
2022-07-31T00:40:47.991Z,16.27
2022-07-31T00:40:58.527Z,16.28
2022-07-31T00:41:09.024Z,16.28
2022-07-31T00:41:19.551Z,16.27
2022-07-31T00:41:30.070Z,16.30
2022-07-31T00:41:40.595Z,16.28
2022-07-31T00:41:51.107Z,16.28
2022-07-31T00:42:01.631Z,16.33
2022-07-31T00:42:12.154Z,16.31
2022-07-31T00:42:22.695Z,16.31
2022-07-31T00:42:33.199Z,16.30
2022-07-31T00:42:43.723Z,16.31
2022-07-31T00:42:54.241Z,16.31
2022-07-31T00:43:04.766Z,16.31
2022-07-31T00:43:15.277Z,16.31
2022-07-31T00:43:27.570Z,16.33
2022-07-31T00:43:37.327Z,16.30
2022-07-31T00:43:46.851Z,16.30
2022-07-31T00:43:57.368Z,16.31
2022-07-31T00:44:12.133Z,16.31
2022-07-31T00:44:18.578Z,16.31
2022-07-31T00:44:28.948Z,16.33
2022-07-31T00:44:39.445Z,16.30
2022-07-31T00:44:49.975Z,16.31
2022-07-31T00:45:00.487Z,16.30
2022-07-31T00:45:13.719Z,16.31
2022-07-31T00:45:22.225Z,16.30
2022-07-31T00:45:33.059Z,16.30
2022-07-31T00:45:42.585Z,16.28
2022-07-31T00:45:58.737Z,16.31
2022-07-31T00:46:04.619Z,16.28
2022-07-31T00:46:14.562Z,16.28
2022-07-31T00:46:24.662Z,16.30
2022-07-31T00:46:35.184Z,16.28
2022-07-31T00:46:45.710Z,16.31
2022-07-31T00:46:56.248Z,16.31
2022-07-31T00:47:07.007Z,16.30
2022-07-31T00:47:17.270Z,16.31
2022-07-31T00:47:27.786Z,16.30
2022-07-31T00:47:39.250Z,16.28
2022-07-31T00:47:48.822Z,16.30
2022-07-31T00:48:00.351Z,16.30
2022-07-31T00:48:09.864Z,16.30
2022-07-31T00:48:20.460Z,16.28
2022-07-31T00:48:30.903Z,16.31
2022-07-31T00:48:41.433Z,16.30
2022-07-31T00:48:52.015Z,16.30
2022-07-31T00:49:02.514Z,16.30
2022-07-31T00:49:13.075Z,16.28
2022-07-31T00:49:23.666Z,16.30
2022-07-31T00:49:37.444Z,16.30
2022-07-31T00:49:44.550Z,16.30
2022-07-31T00:49:55.075Z,16.31
2022-07-31T00:50:05.605Z,16.30
2022-07-31T00:50:16.119Z,16.31
2022-07-31T00:50:26.637Z,16.33
2022-07-31T00:50:37.162Z,16.33
2022-07-31T00:50:47.680Z,16.31
2022-07-31T00:50:58.203Z,16.33
2022-07-31T00:51:08.728Z,16.31
2022-07-31T00:51:19.243Z,16.33
2022-07-31T00:51:29.769Z,16.34
2022-07-31T00:51:40.295Z,16.34
2022-07-31T00:51:50.828Z,16.33
2022-07-31T00:52:01.332Z,16.33
2022-07-31T00:52:11.850Z,16.34
2022-07-31T00:52:22.372Z,16.33
2022-07-31T00:52:32.894Z,16.33
2022-07-31T00:52:43.412Z,16.33
2022-07-31T00:52:53.935Z,16.33
2022-07-31T00:53:04.454Z,16.34
2022-07-31T00:53:14.973Z,16.34
2022-07-31T00:53:25.496Z,16.34
2022-07-31T00:53:36.013Z,16.34
2022-07-31T00:53:46.546Z,16.34
2022-07-31T00:53:57.055Z,16.33
2022-07-31T00:54:07.581Z,16.33
2022-07-31T00:54:22.709Z,16.31
2022-07-31T00:54:28.613Z,16.34
2022-07-31T00:54:39.166Z,16.34
2022-07-31T00:54:49.658Z,16.33
2022-07-31T00:55:00.175Z,16.33
2022-07-31T00:55:10.708Z,16.33
2022-07-31T00:55:21.218Z,16.31
2022-07-31T00:55:31.734Z,16.33
2022-07-31T00:55:51.901Z,16.31
2022-07-31T00:55:53.802Z,16.34
2022-07-31T00:56:03.297Z,16.30
2022-07-31T00:56:13.818Z,16.31
2022-07-31T00:56:24.345Z,16.31
2022-07-31T00:56:34.868Z,16.33
2022-07-31T00:56:45.384Z,16.30
2022-07-31T00:56:55.900Z,16.31
2022-07-31T00:57:06.943Z,16.30
2022-07-31T00:57:16.940Z,16.31
2022-07-31T00:57:27.462Z,16.30
2022-07-31T00:57:37.984Z,16.30
2022-07-31T00:57:48.514Z,16.31
2022-07-31T00:57:59.023Z,16.31
2022-07-31T00:58:09.544Z,16.30
2022-07-31T00:58:20.129Z,16.31
2022-07-31T00:58:30.584Z,16.30
2022-07-31T00:58:41.106Z,16.30
2022-07-31T00:58:51.627Z,16.30
2022-07-31T00:59:02.151Z,16.30
2022-07-31T00:59:12.668Z,16.31
2022-07-31T00:59:24.559Z,16.28
2022-07-31T00:59:33.714Z,16.30
2022-07-31T00:59:44.237Z,16.30
2022-07-31T00:59:54.752Z,16.30
2022-07-31T01:00:05.273Z,16.28
2022-07-31T01:00:15.792Z,16.31
2022-07-31T01:00:26.324Z,16.30
2022-07-31T01:00:36.827Z,16.31
2022-07-31T01:00:47.391Z,16.30
2022-07-31T01:00:57.983Z,16.30
2022-07-31T01:01:08.491Z,16.31
2022-07-31T01:01:18.966Z,16.30
2022-07-31T01:01:29.541Z,16.30
2022-07-31T01:01:40.017Z,16.33
2022-07-31T01:01:50.465Z,16.31
2022-07-31T01:02:00.980Z,16.31
2022-07-31T01:02:11.508Z,16.31
2022-07-31T01:02:22.022Z,16.30
2022-07-31T01:02:32.541Z,16.33
2022-07-31T01:02:46.557Z,16.31
2022-07-31T01:02:53.582Z,16.31
2022-07-31T01:03:04.095Z,16.31
2022-07-31T01:03:14.641Z,16.30
2022-07-31T01:03:25.155Z,16.30
2022-07-31T01:03:35.661Z,16.30
2022-07-31T01:03:46.183Z,16.30
2022-07-31T01:03:56.695Z,16.31
2022-07-31T01:04:07.217Z,16.31
2022-07-31T01:04:18.738Z,16.30
2022-07-31T01:04:28.254Z,16.31
2022-07-31T01:04:40.228Z,16.33
2022-07-31T01:04:49.293Z,16.30
2022-07-31T01:04:59.814Z,16.31
2022-07-31T01:05:10.337Z,16.31
2022-07-31T01:05:20.851Z,16.33
2022-07-31T01:05:31.376Z,16.31
2022-07-31T01:05:41.982Z,16.31
2022-07-31T01:05:52.423Z,16.30
2022-07-31T01:06:02.930Z,16.31
2022-07-31T01:06:13.449Z,16.30
2022-07-31T01:06:23.978Z,16.31
2022-07-31T01:06:34.523Z,16.31
2022-07-31T01:06:45.011Z,16.31
2022-07-31T01:06:55.527Z,16.31
2022-07-31T01:07:06.434Z,16.33
2022-07-31T01:07:16.570Z,16.33
2022-07-31T01:07:27.092Z,16.30
2022-07-31T01:07:37.601Z,16.31
2022-07-31T01:07:48.116Z,16.31
2022-07-31T01:07:58.645Z,16.33
2022-07-31T01:08:09.154Z,16.33
2022-07-31T01:08:19.673Z,16.31
2022-07-31T01:08:30.200Z,16.34
2022-07-31T01:08:40.713Z,16.31
2022-07-31T01:08:51.228Z,16.33
2022-07-31T01:09:01.746Z,16.33
2022-07-31T01:09:12.270Z,16.34
2022-07-31T01:09:22.796Z,16.31
2022-07-31T01:09:33.308Z,16.31
2022-07-31T01:09:43.824Z,16.31
2022-07-31T01:09:54.347Z,16.33
2022-07-31T01:10:04.863Z,16.31
2022-07-31T01:10:15.383Z,16.31
2022-07-31T01:10:25.908Z,16.30
2022-07-31T01:10:36.423Z,16.31
2022-07-31T01:10:46.948Z,16.31
2022-07-31T01:10:57.466Z,16.31
2022-07-31T01:11:07.979Z,16.31
2022-07-31T01:11:18.504Z,16.31
2022-07-31T01:11:29.057Z,16.30
2022-07-31T01:11:39.539Z,16.31
2022-07-31T01:11:50.089Z,16.31
2022-07-31T01:12:00.595Z,16.31
2022-07-31T01:12:11.128Z,16.30
2022-07-31T01:12:21.640Z,16.33
2022-07-31T01:12:32.144Z,16.31
2022-07-31T01:12:42.666Z,16.30
2022-07-31T01:12:54.378Z,16.31
2022-07-31T01:13:03.710Z,16.30
2022-07-31T01:13:14.228Z,16.28
2022-07-31T01:13:24.745Z,16.30
2022-07-31T01:13:35.278Z,16.30
2022-07-31T01:13:45.792Z,16.30
2022-07-31T01:13:56.335Z,16.30
2022-07-31T01:14:06.829Z,16.28
2022-07-31T01:14:17.350Z,16.28
2022-07-31T01:14:27.870Z,16.27
2022-07-31T01:14:38.390Z,16.27
2022-07-31T01:14:48.912Z,16.30
2022-07-31T01:14:59.436Z,16.27
2022-07-31T01:15:09.947Z,16.30
2022-07-31T01:15:20.465Z,16.30
2022-07-31T01:15:30.986Z,16.30
2022-07-31T01:15:41.512Z,16.28
2022-07-31T01:15:52.033Z,16.28
2022-07-31T01:16:02.558Z,16.28
2022-07-31T01:16:13.075Z,16.28
2022-07-31T01:16:23.595Z,16.28
2022-07-31T01:16:34.121Z,16.28
2022-07-31T01:16:44.640Z,16.30
2022-07-31T01:16:55.157Z,16.28
2022-07-31T01:17:05.992Z,16.28
2022-07-31T01:17:16.201Z,16.27
2022-07-31T01:17:26.721Z,16.25
2022-07-31T01:17:37.243Z,16.28
2022-07-31T01:17:47.771Z,16.27
2022-07-31T01:17:58.284Z,16.28
2022-07-31T01:18:08.805Z,16.25
2022-07-31T01:18:19.325Z,16.28
2022-07-31T01:18:29.849Z,16.25
2022-07-31T01:18:40.367Z,16.25
2022-07-31T01:18:50.886Z,16.24
2022-07-31T01:19:01.404Z,16.24
2022-07-31T01:19:11.927Z,16.24
2022-07-31T01:19:22.443Z,16.25
2022-07-31T01:19:41.988Z,16.24
2022-07-31T01:19:44.498Z,16.23
2022-07-31T01:19:54.048Z,16.23
2022-07-31T01:20:04.531Z,16.23
2022-07-31T01:20:15.042Z,16.21
2022-07-31T01:20:25.574Z,16.21
2022-07-31T01:20:36.088Z,16.21
2022-07-31T01:20:46.606Z,16.23
2022-07-31T01:20:57.131Z,16.20
2022-07-31T01:21:07.644Z,16.20
2022-07-31T01:21:18.166Z,16.20
2022-07-31T01:21:28.683Z,16.20
2022-07-31T01:21:39.213Z,16.17
2022-07-31T01:21:49.719Z,16.17
2022-07-31T01:22:00.244Z,16.15
2022-07-31T01:22:33.097Z,16.20
2022-07-31T01:22:34.076Z,16.14
2022-07-31T01:22:35.070Z,16.15
2022-07-31T01:22:42.323Z,16.14
2022-07-31T01:22:52.836Z,16.14
2022-07-31T01:23:03.357Z,16.12
2022-07-31T01:23:13.878Z,16.14
2022-07-31T01:23:24.402Z,16.14
2022-07-31T01:23:34.924Z,16.12
2022-07-31T01:23:50.988Z,16.12
2022-07-31T01:23:56.955Z,16.14
2022-07-31T01:24:06.472Z,16.12
2022-07-31T01:24:16.997Z,16.11
2022-07-31T01:24:27.517Z,16.12
2022-07-31T01:24:38.062Z,16.11
2022-07-31T01:24:48.558Z,16.11
2022-07-31T01:24:59.078Z,16.08
2022-07-31T01:25:09.602Z,16.08
2022-07-31T01:25:20.122Z,16.09
2022-07-31T01:25:30.637Z,16.08
2022-07-31T01:25:41.156Z,16.08
2022-07-31T01:25:51.671Z,16.08
2022-07-31T01:26:02.196Z,16.08
2022-07-31T01:26:12.717Z,16.07
2022-07-31T01:26:23.234Z,16.08
2022-07-31T01:26:33.752Z,16.07
2022-07-31T01:26:44.277Z,16.07
2022-07-31T01:26:54.791Z,16.05
2022-07-31T01:27:05.622Z,16.07
2022-07-31T01:27:15.839Z,16.05
2022-07-31T01:27:26.356Z,16.04
2022-07-31T01:27:49.379Z,16.08
2022-07-31T01:27:49.474Z,16.07
2022-07-31T01:27:57.923Z,16.04
2022-07-31T01:28:08.435Z,16.05
2022-07-31T01:28:18.951Z,16.07
2022-07-31T01:28:29.472Z,16.05
2022-07-31T01:28:39.995Z,16.05
2022-07-31T01:28:50.513Z,16.07
2022-07-31T01:29:01.038Z,16.04
2022-07-31T01:29:11.564Z,16.05
2022-07-31T01:29:22.069Z,16.04
2022-07-31T01:29:32.611Z,16.04
2022-07-31T01:29:43.108Z,16.07
2022-07-31T01:29:53.638Z,16.05
2022-07-31T01:30:04.146Z,16.07
2022-07-31T01:30:14.671Z,16.07
2022-07-31T01:30:28.955Z,16.08
2022-07-31T01:30:36.712Z,16.07
2022-07-31T01:30:46.242Z,16.08
2022-07-31T01:31:11.009Z,16.08
2022-07-31T01:31:25.961Z,16.08
2022-07-31T01:31:26.731Z,16.07
2022-07-31T01:31:29.308Z,16.05
2022-07-31T01:31:38.838Z,16.05
2022-07-31T01:31:49.352Z,16.07
2022-07-31T01:31:59.880Z,16.05
2022-07-31T01:32:10.394Z,16.05
2022-07-31T01:32:20.914Z,16.04
2022-07-31T01:32:32.434Z,16.02
2022-07-31T01:32:41.957Z,16.04
2022-07-31T01:32:52.477Z,16.01
2022-07-31T01:33:03.000Z,16.02
2022-07-31T01:33:13.515Z,16.01
2022-07-31T01:33:24.039Z,16.00
2022-07-31T01:33:34.562Z,16.01
2022-07-31T01:33:45.080Z,15.97
2022-07-31T01:33:55.599Z,15.97
2022-07-31T01:34:06.132Z,15.96
2022-07-31T01:34:16.644Z,15.94
2022-07-31T01:34:27.197Z,15.96
2022-07-31T01:34:37.676Z,15.94
2022-07-31T01:34:48.199Z,15.94
2022-07-31T01:34:58.726Z,15.93
2022-07-31T01:35:09.244Z,15.93
2022-07-31T01:35:19.763Z,15.93
2022-07-31T01:35:30.285Z,15.93
2022-07-31T01:35:40.816Z,15.94
2022-07-31T01:35:51.321Z,15.93
2022-07-31T01:36:01.873Z,15.90
2022-07-31T01:36:12.368Z,15.90
2022-07-31T01:36:22.887Z,15.90
2022-07-31T01:36:33.402Z,15.90
2022-07-31T01:36:43.921Z,15.92
2022-07-31T01:36:54.447Z,15.89
2022-07-31T01:37:05.461Z,15.87
2022-07-31T01:37:15.480Z,15.87
2022-07-31T01:37:26.006Z,15.89
2022-07-31T01:37:36.527Z,15.87
2022-07-31T01:37:47.044Z,15.89
2022-07-31T01:37:57.560Z,15.87
2022-07-31T01:38:08.085Z,15.89
2022-07-31T01:38:18.610Z,15.87
2022-07-31T01:38:29.128Z,15.86
2022-07-31T01:38:43.865Z,15.87
2022-07-31T01:38:51.167Z,15.89
2022-07-31T01:39:00.683Z,15.86
2022-07-31T01:39:11.206Z,15.84
2022-07-31T01:39:21.735Z,15.84
2022-07-31T01:39:34.056Z,15.84
2022-07-31T01:39:42.763Z,15.84
2022-07-31T01:39:53.287Z,15.82
2022-07-31T01:40:03.808Z,15.82
2022-07-31T01:40:14.326Z,15.82
2022-07-31T01:40:24.845Z,15.80
2022-07-31T01:40:35.367Z,15.82
2022-07-31T01:40:45.910Z,15.80
2022-07-31T01:40:56.426Z,15.78
2022-07-31T01:41:06.921Z,15.78
2022-07-31T01:41:17.444Z,15.80
2022-07-31T01:41:27.968Z,15.78
2022-07-31T01:41:38.487Z,15.76
2022-07-31T01:41:49.007Z,15.76
2022-07-31T01:41:59.531Z,15.75
2022-07-31T01:42:10.049Z,15.75
2022-07-31T01:42:20.566Z,15.74
2022-07-31T01:42:31.084Z,15.74
2022-07-31T01:42:41.620Z,15.74
2022-07-31T01:42:52.127Z,15.72
2022-07-31T01:43:02.662Z,15.71
2022-07-31T01:43:13.165Z,15.74
2022-07-31T01:43:23.692Z,15.72
2022-07-31T01:43:34.209Z,15.71
2022-07-31T01:43:44.732Z,15.69
2022-07-31T01:43:55.249Z,15.71
2022-07-31T01:44:05.778Z,15.69
2022-07-31T01:44:16.289Z,15.69
2022-07-31T01:44:26.812Z,15.68
2022-07-31T01:44:37.326Z,15.67
2022-07-31T01:44:47.852Z,15.68
2022-07-31T01:44:58.367Z,15.65
2022-07-31T01:45:08.893Z,15.67
2022-07-31T01:45:19.408Z,15.67
2022-07-31T01:45:29.929Z,15.65
2022-07-31T01:45:40.457Z,15.64
2022-07-31T01:45:50.973Z,15.62
2022-07-31T01:46:01.495Z,15.65
2022-07-31T01:46:12.015Z,15.64
2022-07-31T01:46:22.532Z,15.62
2022-07-31T01:46:39.562Z,15.62
2022-07-31T01:46:44.579Z,15.62
2022-07-31T01:46:54.095Z,15.62
2022-07-31T01:47:05.106Z,15.64
2022-07-31T01:47:15.136Z,15.60
2022-07-31T01:47:25.678Z,15.62
2022-07-31T01:47:36.175Z,15.60
2022-07-31T01:47:46.702Z,15.60
2022-07-31T01:47:57.222Z,15.60
2022-07-31T01:48:07.737Z,15.62
2022-07-31T01:48:18.258Z,15.62
2022-07-31T01:48:28.776Z,15.60
2022-07-31T01:48:39.302Z,15.59
2022-07-31T01:48:49.878Z,15.59
2022-07-31T01:49:00.437Z,15.59
2022-07-31T01:49:10.925Z,15.60
2022-07-31T01:49:21.449Z,15.59
2022-07-31T01:49:32.000Z,15.60
2022-07-31T01:49:42.412Z,15.59
2022-07-31T01:49:52.935Z,15.59
2022-07-31T01:50:03.460Z,15.59
2022-07-31T01:50:42.542Z,15.59
2022-07-31T01:50:43.235Z,15.57
2022-07-31T01:50:43.284Z,15.59
2022-07-31T01:50:46.535Z,15.59
2022-07-31T01:50:56.050Z,15.59
2022-07-31T01:51:06.574Z,15.57
2022-07-31T01:51:17.091Z,15.59
2022-07-31T01:51:27.606Z,15.57
2022-07-31T01:51:38.127Z,15.59
2022-07-31T01:51:48.649Z,15.57
2022-07-31T01:52:04.778Z,15.57
2022-07-31T01:52:10.689Z,15.59
2022-07-31T01:52:20.211Z,15.57
2022-07-31T01:52:30.729Z,15.59
2022-07-31T01:52:41.271Z,15.57
2022-07-31T01:52:51.771Z,15.56
2022-07-31T01:53:02.281Z,15.54
2022-07-31T01:53:12.803Z,15.57
2022-07-31T01:53:23.324Z,15.54
2022-07-31T01:53:33.842Z,15.57
2022-07-31T01:53:44.357Z,15.56
2022-07-31T01:53:54.885Z,15.56
2022-07-31T01:54:05.397Z,15.54
2022-07-31T01:54:15.924Z,15.54
2022-07-31T01:54:26.431Z,15.56
2022-07-31T01:54:36.958Z,15.56
2022-07-31T01:54:47.474Z,15.57
2022-07-31T01:54:57.998Z,15.56
2022-07-31T01:55:08.509Z,15.56
2022-07-31T01:55:19.033Z,15.56
2022-07-31T01:55:29.545Z,15.57
2022-07-31T01:56:03.796Z,15.56
2022-07-31T01:56:03.832Z,15.56
2022-07-31T01:56:04.355Z,15.56
2022-07-31T01:56:11.620Z,15.56
2022-07-31T01:56:22.140Z,15.54
2022-07-31T01:56:32.657Z,15.57
2022-07-31T01:56:43.182Z,15.57
2022-07-31T01:56:53.694Z,15.56
2022-07-31T01:57:04.253Z,15.59
2022-07-31T01:57:18.617Z,15.57
2022-07-31T01:57:25.248Z,15.57
2022-07-31T01:57:35.772Z,15.57
2022-07-31T01:57:46.299Z,15.56
2022-07-31T01:57:56.811Z,15.57
2022-07-31T01:58:07.356Z,15.59
2022-07-31T01:58:17.847Z,15.59
2022-07-31T01:58:28.365Z,15.59
2022-07-31T01:58:38.924Z,15.60
2022-07-31T01:58:49.396Z,15.60
2022-07-31T01:58:59.923Z,15.60
2022-07-31T01:59:20.077Z,15.60
2022-07-31T01:59:22.897Z,15.60
2022-07-31T01:59:31.649Z,15.60
2022-07-31T01:59:44.745Z,15.62
2022-07-31T01:59:54.784Z,15.64
2022-07-31T02:00:03.024Z,15.62
2022-07-31T02:00:14.871Z,15.64
2022-07-31T02:00:34.625Z,15.62
2022-07-31T02:00:35.576Z,15.62
2022-07-31T02:00:45.175Z,15.64
2022-07-31T02:00:55.684Z,15.62
2022-07-31T02:01:06.190Z,15.65
2022-07-31T02:01:16.736Z,15.64
2022-07-31T02:01:27.611Z,15.64
2022-07-31T02:01:37.745Z,15.67
2022-07-31T02:01:48.357Z,15.67
2022-07-31T02:01:58.716Z,15.67
2022-07-31T02:02:09.870Z,15.67
2022-07-31T02:02:19.749Z,15.68
2022-07-31T02:02:30.271Z,15.69
2022-07-31T02:02:42.426Z,15.71
2022-07-31T02:02:51.304Z,15.71
2022-07-31T02:03:09.387Z,15.71
2022-07-31T02:03:13.336Z,15.71
2022-07-31T02:03:43.614Z,15.69
2022-07-31T02:03:43.975Z,15.69
2022-07-31T02:03:45.536Z,15.71
2022-07-31T02:03:56.323Z,15.71
2022-07-31T02:04:04.926Z,15.72
2022-07-31T02:04:15.445Z,15.72
2022-07-31T02:04:25.964Z,15.72
2022-07-31T02:04:36.488Z,15.72
2022-07-31T02:04:46.993Z,15.71
2022-07-31T02:04:57.510Z,15.72
2022-07-31T02:05:08.033Z,15.71
2022-07-31T02:05:18.545Z,15.71
2022-07-31T02:05:29.065Z,15.69
2022-07-31T02:05:39.586Z,15.71
2022-07-31T02:05:50.100Z,15.69
2022-07-31T02:06:00.615Z,15.69
2022-07-31T02:06:11.143Z,15.71
2022-07-31T02:06:21.657Z,15.72
2022-07-31T02:06:32.170Z,15.71
2022-07-31T02:06:42.700Z,15.71
2022-07-31T02:06:53.209Z,15.71
2022-07-31T02:07:03.730Z,15.69
2022-07-31T02:07:14.243Z,15.68
2022-07-31T02:07:24.761Z,15.68
2022-07-31T02:07:35.283Z,15.69
2022-07-31T02:07:45.800Z,15.68
2022-07-31T02:07:56.320Z,15.71
2022-07-31T02:08:06.839Z,15.71
2022-07-31T02:08:17.368Z,15.68
2022-07-31T02:08:27.877Z,15.69
2022-07-31T02:08:38.393Z,15.69
2022-07-31T02:08:48.946Z,15.69
2022-07-31T02:08:59.443Z,15.71
2022-07-31T02:09:09.981Z,15.71
2022-07-31T02:09:20.465Z,15.69
2022-07-31T02:09:30.989Z,15.71
2022-07-31T02:09:53.696Z,15.69
2022-07-31T02:09:58.690Z,15.69
2022-07-31T02:10:03.547Z,15.71
2022-07-31T02:10:13.074Z,15.72
2022-07-31T02:10:23.581Z,15.69
2022-07-31T02:10:34.100Z,15.71
2022-07-31T02:10:44.621Z,15.74
2022-07-31T02:10:55.135Z,15.72
2022-07-31T02:11:05.661Z,15.72
2022-07-31T02:11:16.175Z,15.71
2022-07-31T02:11:26.694Z,15.72
2022-07-31T02:11:53.496Z,15.74
2022-07-31T02:11:54.518Z,15.72
2022-07-31T02:11:59.249Z,15.74
2022-07-31T02:12:09.769Z,15.74
2022-07-31T02:12:19.290Z,15.72
2022-07-31T02:12:33.568Z,15.72
2022-07-31T02:12:40.329Z,15.74
2022-07-31T02:12:50.837Z,15.75
2022-07-31T02:13:01.354Z,15.74
2022-07-31T02:13:11.875Z,15.72
2022-07-31T02:13:22.396Z,15.72
2022-07-31T02:13:32.914Z,15.74
2022-07-31T02:13:43.440Z,15.75
2022-07-31T02:13:53.994Z,15.75
2022-07-31T02:14:04.471Z,15.74
2022-07-31T02:14:15.003Z,15.74
2022-07-31T02:14:25.516Z,15.75
2022-07-31T02:14:36.025Z,15.76
2022-07-31T02:14:46.568Z,15.76
2022-07-31T02:14:57.064Z,15.76
2022-07-31T02:15:07.594Z,15.78
2022-07-31T02:15:18.102Z,15.76
2022-07-31T02:15:28.620Z,15.76